aviador You're here:

KGKJ Decoded Metar

MEADVILLE in PA, USA
Report Time2017-03-23 23:53:00
UTC Time2017-03-24 00:07:32
Flight Rules vfr VFR
WindCalm
Visibility9999 m
Phenomena:N/A
Clouds:N/A
Expected CloudBase > 8,400 ft AGL from Temp-Dew spread
CeilingNone
Temp05°C (ISA -7)
Dew Point-16°C (20% RH)
AAT1.6°C
QNH1027 hPa
Density Alt92 ft
Elevation1,404 ft
Report Wrong Elevation
Raw Report
KGKJ 232353Z AUTO 00000KT 10SM CLR 05/M16 A3033 RMK AO2 SLP288
T00501156 10078 20033 55014=

Extra information for KGKJ:More info

Metar Taf Metar & Taf Last 4 Metars F.Rules Stats Wind Profile Meteogram Temp Stats Airport Information Weather charts Add Link Nearby VenuesMetar ALERT Operation Metar Decoded Social comments

AIRNAV info for KGKJ